首页
METAR-TAF:

METAR-TAF

机场 :

Redmond Municipal Airport (Roberts Field)

Redmond, 俄勒冈州, 美国

纬度: 44-15-15N, 经度: 121-08-59W, 海拔: 938米

当前天气观测

该预报发布于57分钟前的04:56 UTC
风速16节,风向西,有时为20节阵风
温度 7°C
湿度 76%
气压 1011 hPa
能見度: 16.1公里
散云层高于2900英尺
阴天层高于3600英尺
小雨

METAR: KRDM 120456Z AUTO 27016G20KT 10SM -RA SCT029 OVC036 07/03 A2985 RMK AO2 SLP111 P0006 T00670033

时间: 21:53 (05:53 UTC)

预报

该预报发布于33分钟前的05:20 UTC
预报有效从12日的 06点(UTC)到 13日的 06点(UTC)
风速14节,风向西转西南,有时为22节阵风
能見度: 10公里
多云层高于5000英尺
小阵雨
从 12日的 0900点(UTC)
风速15节,风向西,有时为24节阵风
能見度: 10公里
多云层高于5000英尺
从 12日的 1700点(UTC)
风速10节,风向西南
能見度: 10公里
散云层高于6000英尺
多云层高于15000英尺

TAF: KRDM 120520Z 1206/1306 24014G22KT P6SM -SHRA BKN050 FM120900 28015G24KT P6SM BKN050 FM121700 23010KT P6SM SCT060 BKN150

超过4000个机场的气象观测和天气预报(METAR&TAF报告)。

可查询的气象台以黄色和红色小点在地图上表示。

将鼠标移到小点上方,可查看气象台名称。

然后点击查看天气观测和预报。

如需切换地图:点击带黑十字的绿色按钮放大地图;点击带横线的绿色按钮缩小地图;或者点击绿色箭头查看邻近地区的地图。


METAR-TAF: